createdAt,value
2022-08-22T00:01:15.746Z,17.02
2022-08-22T00:03:02.138Z,21.07
2022-08-22T00:03:08.202Z,21.23
2022-08-22T00:03:12.014Z,18.03
2022-08-22T00:03:55.716Z,16.99
2022-08-22T00:06:34.386Z,16.94
2022-08-22T00:09:15.631Z,16.90
2022-08-22T00:11:51.805Z,16.86
2022-08-22T00:14:25.820Z,16.82
2022-08-22T00:17:13.292Z,16.79
2022-08-22T00:20:04.375Z,16.74
2022-08-22T00:22:40.174Z,16.68
2022-08-22T00:25:25.952Z,16.63
2022-08-22T00:27:57.995Z,16.59
2022-08-22T00:30:27.617Z,16.56
2022-08-22T00:32:59.920Z,16.52
2022-08-22T00:35:36.452Z,16.47
2022-08-22T00:38:11.265Z,16.42
2022-08-22T00:40:58.151Z,16.39
2022-08-22T00:43:55.331Z,16.34
2022-08-22T00:46:41.901Z,16.30
2022-08-22T00:49:25.412Z,16.27
2022-08-22T00:52:41.441Z,16.24
2022-08-22T00:55:28.990Z,16.19
2022-08-22T00:58:22.138Z,16.14
2022-08-22T01:00:54.775Z,16.09
2022-08-22T01:03:59.817Z,16.05
2022-08-22T01:06:41.031Z,16.00
2022-08-22T01:09:18.650Z,15.99
2022-08-22T01:12:06.193Z,15.95
2022-08-22T01:14:46.760Z,15.92
2022-08-22T01:17:53.350Z,15.88
2022-08-22T01:21:08.648Z,15.84
2022-08-22T01:24:22.330Z,15.77
2022-08-22T01:27:18.219Z,15.74
2022-08-22T01:30:18.383Z,15.70
2022-08-22T01:33:33.247Z,15.64
2022-08-22T01:36:24.335Z,15.61
2022-08-22T01:39:04.049Z,15.58
2022-08-22T01:42:04.370Z,15.55
2022-08-22T01:44:59.847Z,15.51
2022-08-22T01:47:36.627Z,15.47
2022-08-22T01:50:31.796Z,15.42
2022-08-22T01:53:06.899Z,15.36
2022-08-22T01:55:39.810Z,15.33
2022-08-22T01:58:17.783Z,15.30
2022-08-22T02:01:04.051Z,15.25
2022-08-22T02:03:35.038Z,15.22
2022-08-22T02:06:08.334Z,15.19
2022-08-22T02:08:51.675Z,15.15
2022-08-22T02:11:38.943Z,15.13
2022-08-22T02:14:18.408Z,15.08
2022-08-22T02:16:50.540Z,15.05
2022-08-22T02:19:34.548Z,15.02
2022-08-22T02:22:08.294Z,15.00
2022-08-22T02:24:52.223Z,14.96
2022-08-22T02:27:31.915Z,14.94
2022-08-22T02:30:05.863Z,14.90
2022-08-22T02:32:46.055Z,14.89
2022-08-22T02:35:23.182Z,14.87
2022-08-22T02:38:02.672Z,14.85
2022-08-22T02:40:39.852Z,14.84
2022-08-22T02:43:18.094Z,14.82
2022-08-22T02:45:52.666Z,14.80
2022-08-22T02:48:34.315Z,14.78
2022-08-22T02:51:09.485Z,14.75
2022-08-22T02:53:46.212Z,14.72
2022-08-22T02:56:20.607Z,14.69
2022-08-22T02:58:53.877Z,14.68
2022-08-22T03:01:38.639Z,14.64
2022-08-22T03:04:39.221Z,14.63
2022-08-22T03:07:14.352Z,14.60
2022-08-22T03:09:48.782Z,14.59
2022-08-22T03:12:26.046Z,14.56
2022-08-22T03:15:03.297Z,14.54
2022-08-22T03:17:36.114Z,14.53
2022-08-22T03:20:10.456Z,14.51
2022-08-22T03:22:45.990Z,14.49
2022-08-22T03:25:26.661Z,14.48
2022-08-22T03:28:02.019Z,14.47
2022-08-22T03:30:37.339Z,14.45
2022-08-22T03:33:20.638Z,14.45
2022-08-22T03:36:10.564Z,14.43
2022-08-22T03:38:52.691Z,14.41
2022-08-22T03:41:37.143Z,14.38
2022-08-22T03:44:30.611Z,14.35
2022-08-22T03:47:22.350Z,14.32
2022-08-22T03:50:12.284Z,14.31
2022-08-22T03:53:18.857Z,14.28
2022-08-22T03:56:22.679Z,14.26
2022-08-22T03:59:19.434Z,14.22
2022-08-22T04:02:24.801Z,14.19
2022-08-22T04:05:28.160Z,14.14
2022-08-22T04:08:29.736Z,14.11
2022-08-22T04:11:13.723Z,14.06
2022-08-22T04:14:07.535Z,14.03
2022-08-22T04:17:10.736Z,14.00
2022-08-22T04:19:54.499Z,13.97
2022-08-22T04:22:34.710Z,13.94
2022-08-22T04:25:08.168Z,13.91
2022-08-22T04:27:42.644Z,13.88
2022-08-22T04:30:23.462Z,13.86
2022-08-22T04:33:02.388Z,13.82
2022-08-22T04:35:34.255Z,13.80
2022-08-22T04:38:09.040Z,13.78
2022-08-22T04:40:43.449Z,13.76
2022-08-22T04:43:18.327Z,13.74
2022-08-22T04:45:53.330Z,13.73
2022-08-22T04:48:30.319Z,13.72
2022-08-22T04:51:04.152Z,13.72
2022-08-22T04:54:15.941Z,13.69
2022-08-22T04:56:58.010Z,13.68
2022-08-22T04:59:26.808Z,13.68
2022-08-22T05:01:57.830Z,13.67
2022-08-22T05:04:30.402Z,13.65
2022-08-22T05:07:05.533Z,13.64
2022-08-22T05:09:36.196Z,13.63
2022-08-22T05:12:09.060Z,13.63
2022-08-22T05:14:41.318Z,13.64
2022-08-22T05:17:15.539Z,13.65
2022-08-22T05:19:50.719Z,13.67
2022-08-22T05:22:22.749Z,13.68
2022-08-22T05:24:55.428Z,13.70
2022-08-22T05:27:26.798Z,13.72
2022-08-22T05:30:02.239Z,13.74
2022-08-22T05:32:34.073Z,13.78
2022-08-22T05:35:06.750Z,13.79
2022-08-22T05:37:39.270Z,13.83
2022-08-22T05:40:10.921Z,13.84
2022-08-22T05:42:38.903Z,13.89
2022-08-22T05:45:12.207Z,13.93
2022-08-22T05:47:44.057Z,13.98
2022-08-22T05:50:17.199Z,14.03
2022-08-22T05:53:03.731Z,14.10
2022-08-22T05:55:38.631Z,14.14
2022-08-22T05:58:19.292Z,14.18
2022-08-22T06:00:50.248Z,14.26
2022-08-22T06:03:26.806Z,14.32
2022-08-22T06:06:00.762Z,14.39
2022-08-22T06:08:34.622Z,14.47
2022-08-22T06:11:06.700Z,14.52
2022-08-22T06:13:37.636Z,14.58
2022-08-22T06:16:16.972Z,14.64
2022-08-22T06:18:46.036Z,14.69
2022-08-22T06:21:22.082Z,14.74
2022-08-22T06:23:56.569Z,14.78
2022-08-22T06:26:27.098Z,14.84
2022-08-22T06:28:59.768Z,14.90
2022-08-22T06:31:33.075Z,14.96
2022-08-22T06:34:06.525Z,15.03
2022-08-22T06:36:38.614Z,15.10
2022-08-22T06:39:18.624Z,15.16
2022-08-22T06:41:51.942Z,15.23
2022-08-22T06:44:24.895Z,15.32
2022-08-22T06:46:56.536Z,15.43
2022-08-22T06:49:27.175Z,15.52
2022-08-22T06:52:01.799Z,15.63
2022-08-22T06:54:34.861Z,15.71
2022-08-22T06:57:06.382Z,15.80
2022-08-22T06:59:39.363Z,15.88
2022-08-22T07:02:17.469Z,15.97
2022-08-22T07:04:49.234Z,16.06
2022-08-22T07:07:21.508Z,16.17
2022-08-22T07:09:55.469Z,16.25
2022-08-22T07:12:27.940Z,16.35
2022-08-22T07:15:01.329Z,16.43
2022-08-22T07:17:32.548Z,16.55
2022-08-22T07:20:06.232Z,16.67
2022-08-22T07:22:37.574Z,16.79
2022-08-22T07:25:11.050Z,16.93
2022-08-22T07:27:51.896Z,17.02
2022-08-22T07:30:27.446Z,17.12
2022-08-22T07:33:25.639Z,17.23
2022-08-22T07:35:55.050Z,17.36
2022-08-22T07:38:34.921Z,17.51
2022-08-22T07:41:12.190Z,17.69
2022-08-22T07:43:44.389Z,17.83
2022-08-22T07:46:25.530Z,17.96
2022-08-22T07:49:10.330Z,18.08
2022-08-22T07:51:44.563Z,18.24
2022-08-22T07:54:17.105Z,18.37
2022-08-22T07:56:52.209Z,18.47
2022-08-22T07:59:21.514Z,18.62
2022-08-22T08:01:54.097Z,18.79
2022-08-22T08:04:26.254Z,18.98
2022-08-22T08:06:58.528Z,19.18
2022-08-22T08:09:32.918Z,19.35
2022-08-22T08:12:03.100Z,19.52
2022-08-22T08:14:32.451Z,19.73
2022-08-22T08:17:04.321Z,19.92
2022-08-22T08:19:35.559Z,20.11
2022-08-22T08:22:04.860Z,20.27
2022-08-22T08:24:40.308Z,20.46
2022-08-22T08:27:33.074Z,20.65
2022-08-22T08:30:04.927Z,20.88
2022-08-22T08:32:36.854Z,21.07
2022-08-22T08:35:08.835Z,21.24
2022-08-22T08:37:46.459Z,21.44
2022-08-22T08:40:29.298Z,21.65
2022-08-22T08:43:31.315Z,21.81
2022-08-22T08:46:32.717Z,22.07
2022-08-22T08:49:29.513Z,22.27
2022-08-22T08:52:24.493Z,22.47
2022-08-22T08:55:19.911Z,22.65
2022-08-22T08:58:10.368Z,22.83
2022-08-22T09:00:53.372Z,22.98
2022-08-22T09:03:44.475Z,23.13
2022-08-22T09:06:52.592Z,23.29
2022-08-22T09:09:42.871Z,23.42
2022-08-22T09:12:36.858Z,23.50
2022-08-22T09:15:38.909Z,23.65
2022-08-22T09:18:52.055Z,23.83
2022-08-22T09:21:46.618Z,24.06
2022-08-22T09:24:46.895Z,24.18
2022-08-22T09:27:21.602Z,24.26
2022-08-22T09:29:59.763Z,24.32
2022-08-22T09:32:44.135Z,24.45
2022-08-22T09:35:22.521Z,24.58
2022-08-22T09:38:01.899Z,24.71
2022-08-22T09:40:35.396Z,24.91
2022-08-22T09:43:07.555Z,25.08
2022-08-22T09:46:01.854Z,25.28
2022-08-22T09:48:45.260Z,25.35
2022-08-22T09:51:31.488Z,25.41
2022-08-22T09:54:22.929Z,25.48
2022-08-22T09:57:01.226Z,25.58
2022-08-22T10:00:00.306Z,25.71
2022-08-22T10:02:36.377Z,25.80
2022-08-22T10:05:40.935Z,25.94
2022-08-22T10:08:20.268Z,26.05
2022-08-22T10:11:15.922Z,26.18
2022-08-22T10:13:57.351Z,26.13
2022-08-22T10:17:05.371Z,26.16
2022-08-22T10:19:41.559Z,26.25
2022-08-22T10:22:45.163Z,26.25
2022-08-22T10:25:34.677Z,26.35
2022-08-22T10:28:15.979Z,26.49
2022-08-22T10:30:57.215Z,26.67
2022-08-22T10:33:30.767Z,26.74
2022-08-22T10:36:05.039Z,26.83
2022-08-22T10:38:46.168Z,27.06
2022-08-22T10:41:26.595Z,27.32
2022-08-22T10:44:04.050Z,27.38
2022-08-22T10:46:38.937Z,27.33
2022-08-22T10:49:17.934Z,27.35
2022-08-22T10:51:52.964Z,27.41
2022-08-22T10:54:51.365Z,27.56
2022-08-22T10:57:35.524Z,27.57
2022-08-22T11:00:12.023Z,27.51
2022-08-22T11:03:00.817Z,27.63
2022-08-22T11:05:35.633Z,27.49
2022-08-22T11:08:39.542Z,27.64
2022-08-22T11:11:20.418Z,27.84
2022-08-22T11:14:25.808Z,27.96
2022-08-22T11:17:00.666Z,28.14
2022-08-22T11:19:44.983Z,28.38
2022-08-22T11:22:29.764Z,28.54
2022-08-22T11:25:38.685Z,28.73
2022-08-22T11:28:39.831Z,29.08
2022-08-22T11:31:21.500Z,29.39
2022-08-22T11:33:54.154Z,29.57
2022-08-22T11:36:37.244Z,29.62
2022-08-22T11:39:24.379Z,29.47
2022-08-22T11:42:06.533Z,29.43
2022-08-22T11:44:50.823Z,29.43
2022-08-22T11:47:26.615Z,29.42
2022-08-22T11:50:01.538Z,29.51
2022-08-22T11:52:54.650Z,29.52
2022-08-22T11:55:34.543Z,29.48
2022-08-22T11:58:21.162Z,29.75
2022-08-22T12:01:00.921Z,30.20
2022-08-22T12:03:58.121Z,30.48
2022-08-22T12:06:59.880Z,30.48
2022-08-22T12:09:50.619Z,30.53
2022-08-22T12:12:35.047Z,30.60
2022-08-22T12:15:12.255Z,30.65
2022-08-22T12:18:26.722Z,30.80
2022-08-22T12:21:10.892Z,31.25
2022-08-22T12:23:57.322Z,31.73
2022-08-22T12:26:33.754Z,32.16
2022-08-22T12:29:19.910Z,32.33
2022-08-22T12:32:34.383Z,32.10
2022-08-22T12:35:30.049Z,32.02
2022-08-22T12:38:28.055Z,31.97
2022-08-22T12:41:28.312Z,31.93
2022-08-22T12:44:17.802Z,31.75
2022-08-22T12:47:02.941Z,31.54
2022-08-22T12:49:49.813Z,31.37
2022-08-22T12:52:38.893Z,31.17
2022-08-22T12:55:28.585Z,31.00
2022-08-22T12:58:05.118Z,31.10
2022-08-22T13:00:36.864Z,31.36
2022-08-22T13:03:09.598Z,31.63
2022-08-22T13:05:41.050Z,31.75
2022-08-22T13:08:12.753Z,31.66
2022-08-22T13:10:47.788Z,31.78
2022-08-22T13:13:28.237Z,31.87
2022-08-22T13:16:08.478Z,31.66
2022-08-22T13:18:40.360Z,31.39
2022-08-22T13:21:17.608Z,31.17
2022-08-22T13:23:54.240Z,30.95
2022-08-22T13:26:31.864Z,30.71
2022-08-22T13:29:24.785Z,30.41
2022-08-22T13:31:59.273Z,30.23
2022-08-22T13:34:39.493Z,30.10
2022-08-22T13:37:13.214Z,30.01
2022-08-22T13:39:46.342Z,29.93
2022-08-22T13:42:30.351Z,29.77
2022-08-22T13:45:02.382Z,29.65
2022-08-22T13:47:34.557Z,29.47
2022-08-22T13:50:13.817Z,29.27
2022-08-22T13:52:52.558Z,29.10
2022-08-22T13:55:30.784Z,29.07
2022-08-22T13:58:11.477Z,29.07
2022-08-22T14:01:39.748Z,29.07
2022-08-22T14:04:29.053Z,29.17
2022-08-22T14:07:25.488Z,29.25
2022-08-22T14:09:59.648Z,29.23
2022-08-22T14:12:50.113Z,29.22
2022-08-22T14:15:26.293Z,29.09
2022-08-22T14:18:10.385Z,28.97
2022-08-22T14:20:41.335Z,28.92
2022-08-22T14:23:17.220Z,28.88
2022-08-22T14:25:45.681Z,28.95
2022-08-22T14:28:28.626Z,29.02
2022-08-22T14:31:01.882Z,29.14
2022-08-22T14:33:36.346Z,29.26
2022-08-22T14:36:15.306Z,29.47
2022-08-22T14:38:48.286Z,29.67
2022-08-22T14:41:55.740Z,29.82
2022-08-22T14:44:23.392Z,29.86
2022-08-22T14:46:56.228Z,29.80
2022-08-22T14:49:47.751Z,29.69
2022-08-22T14:52:31.651Z,29.51
2022-08-22T14:55:19.354Z,29.24
2022-08-22T14:57:53.632Z,29.12
2022-08-22T15:00:34.664Z,29.11
2022-08-22T15:03:22.006Z,29.06
2022-08-22T15:05:52.264Z,28.90
2022-08-22T15:08:27.729Z,28.85
2022-08-22T15:11:11.652Z,28.87
2022-08-22T15:13:44.136Z,28.81
2022-08-22T15:16:18.562Z,28.84
2022-08-22T15:18:51.934Z,28.87
2022-08-22T15:21:24.333Z,28.84
2022-08-22T15:23:55.290Z,28.81
2022-08-22T15:26:30.691Z,28.79
2022-08-22T15:29:06.935Z,28.82
2022-08-22T15:31:36.161Z,28.89
2022-08-22T15:34:14.443Z,28.89
2022-08-22T15:37:09.801Z,28.74
2022-08-22T15:40:00.552Z,28.64
2022-08-22T15:42:34.116Z,28.59
2022-08-22T15:45:03.008Z,28.58
2022-08-22T15:47:38.099Z,28.61
2022-08-22T15:50:14.766Z,28.63
2022-08-22T15:53:13.216Z,28.61
2022-08-22T15:56:20.259Z,28.56
2022-08-22T15:58:50.775Z,28.54
2022-08-22T16:01:22.230Z,28.47
2022-08-22T16:03:57.074Z,28.40
2022-08-22T16:06:43.154Z,28.30
2022-08-22T16:09:32.588Z,28.19
2022-08-22T16:12:05.220Z,28.08
2022-08-22T16:14:49.905Z,27.94
2022-08-22T16:17:41.745Z,27.84
2022-08-22T16:20:58.326Z,27.72
2022-08-22T16:23:27.568Z,27.62
2022-08-22T16:26:10.728Z,27.54
2022-08-22T16:28:59.141Z,27.44
2022-08-22T16:31:33.736Z,27.35
2022-08-22T16:34:24.171Z,27.23
2022-08-22T16:37:31.639Z,27.14
2022-08-22T16:40:15.314Z,27.06
2022-08-22T16:42:46.419Z,26.99
2022-08-22T16:45:20.121Z,26.93
2022-08-22T16:47:52.778Z,26.84
2022-08-22T16:50:33.809Z,26.78
2022-08-22T16:53:06.291Z,26.73
2022-08-22T16:55:45.264Z,26.68
2022-08-22T16:58:40.064Z,26.61
2022-08-22T17:01:20.791Z,26.51
2022-08-22T17:03:58.659Z,26.45
2022-08-22T17:06:39.388Z,26.39
2022-08-22T17:09:24.546Z,26.31
2022-08-22T17:12:03.586Z,26.24
2022-08-22T17:14:42.316Z,26.16
2022-08-22T17:17:25.633Z,26.09
2022-08-22T17:20:07.705Z,26.00
2022-08-22T17:22:46.806Z,25.93
2022-08-22T17:25:22.267Z,25.86
2022-08-22T17:28:11.920Z,25.80
2022-08-22T17:30:47.103Z,25.72
2022-08-22T17:33:27.824Z,25.64
2022-08-22T17:36:06.055Z,25.57
2022-08-22T17:38:56.667Z,25.47
2022-08-22T17:41:34.887Z,25.41
2022-08-22T17:44:14.967Z,25.32
2022-08-22T17:46:50.966Z,25.25
2022-08-22T17:49:29.673Z,25.15
2022-08-22T17:52:01.351Z,25.06
2022-08-22T17:54:40.456Z,24.98
2022-08-22T17:57:13.623Z,24.91
2022-08-22T17:59:51.484Z,24.81
2022-08-22T18:02:24.816Z,24.73
2022-08-22T18:05:01.468Z,24.65
2022-08-22T18:07:37.042Z,24.54
2022-08-22T18:10:14.653Z,24.45
2022-08-22T18:12:48.756Z,24.37
2022-08-22T18:15:26.741Z,24.25
2022-08-22T18:18:00.251Z,24.15
2022-08-22T18:20:34.302Z,24.05
2022-08-22T18:23:21.374Z,23.96
2022-08-22T18:26:05.227Z,23.84
2022-08-22T18:28:41.944Z,23.76
2022-08-22T18:31:28.206Z,23.68
2022-08-22T18:34:02.123Z,23.58
2022-08-22T18:36:35.902Z,23.52
2022-08-22T18:39:09.121Z,23.44
2022-08-22T18:41:42.915Z,23.37
2022-08-22T18:44:12.962Z,23.29
2022-08-22T18:46:46.434Z,23.20
2022-08-22T18:49:43.947Z,23.12
2022-08-22T18:52:19.471Z,23.04
2022-08-22T18:55:17.589Z,22.95
2022-08-22T18:58:05.861Z,22.88
2022-08-22T19:00:57.351Z,22.81
2022-08-22T19:03:46.818Z,22.73
2022-08-22T19:06:47.756Z,22.66
2022-08-22T19:09:33.733Z,22.57
2022-08-22T19:12:13.479Z,22.51
2022-08-22T19:15:05.328Z,22.45
2022-08-22T19:18:08.653Z,22.40
2022-08-22T19:20:57.547Z,22.33
2022-08-22T19:23:47.484Z,22.28
2022-08-22T19:26:28.673Z,22.20
2022-08-22T19:28:59.085Z,22.15
2022-08-22T19:31:45.573Z,22.10
2022-08-22T19:34:19.132Z,22.04
2022-08-22T19:37:32.474Z,21.99
2022-08-22T19:40:05.326Z,21.91
2022-08-22T19:42:36.831Z,21.88
2022-08-22T19:45:19.985Z,21.85
2022-08-22T19:47:57.770Z,21.81
2022-08-22T19:50:31.506Z,21.75
2022-08-22T19:53:24.441Z,21.69
2022-08-22T19:56:06.149Z,21.64
2022-08-22T19:58:46.090Z,21.59
2022-08-22T20:01:39.275Z,21.54
2022-08-22T20:04:20.591Z,21.51
2022-08-22T20:06:57.978Z,21.46
2022-08-22T20:09:39.793Z,21.43
2022-08-22T20:12:15.936Z,21.38
2022-08-22T20:14:46.711Z,21.34
2022-08-22T20:17:39.607Z,21.29
2022-08-22T20:20:18.151Z,21.25
2022-08-22T20:22:52.819Z,21.22
2022-08-22T20:25:41.759Z,21.19
2022-08-22T20:28:36.389Z,21.14
2022-08-22T20:31:08.084Z,21.11
2022-08-22T20:33:39.725Z,21.07
2022-08-22T20:36:21.188Z,21.03
2022-08-22T20:38:59.674Z,20.99
2022-08-22T20:41:34.950Z,20.94
2022-08-22T20:44:11.176Z,20.89
2022-08-22T20:46:54.882Z,20.84
2022-08-22T20:49:26.725Z,20.77
2022-08-22T20:51:56.623Z,20.70
2022-08-22T20:54:27.369Z,20.64
2022-08-22T20:57:00.120Z,20.58
2022-08-22T20:59:32.390Z,20.51
2022-08-22T21:02:09.820Z,20.46
2022-08-22T21:04:46.118Z,20.43
2022-08-22T21:07:21.950Z,20.35
2022-08-22T21:10:16.702Z,20.31
2022-08-22T21:15:42.485Z,20.17
2022-08-22T21:18:12.212Z,20.11
2022-08-22T21:20:41.211Z,20.07
2022-08-22T21:23:20.622Z,20.02
2022-08-22T21:25:51.843Z,19.95
2022-08-22T21:28:31.197Z,19.89
2022-08-22T21:31:08.502Z,19.84
2022-08-22T21:33:39.879Z,19.76
2022-08-22T21:36:11.771Z,19.71
2022-08-22T21:38:40.648Z,19.65
2022-08-22T21:41:08.644Z,19.61
2022-08-22T21:43:39.170Z,19.57
2022-08-22T21:46:08.658Z,19.54
2022-08-22T21:48:40.212Z,19.49
2022-08-22T21:51:42.592Z,19.43
2022-08-22T21:54:39.957Z,19.40
2022-08-22T21:57:36.028Z,19.36
2022-08-22T22:00:11.304Z,19.30
2022-08-22T22:02:43.839Z,19.25
2022-08-22T22:05:14.809Z,19.21
2022-08-22T22:07:45.721Z,19.17
2022-08-22T22:10:16.166Z,19.12
2022-08-22T22:12:46.318Z,19.08
2022-08-22T22:15:17.118Z,19.03
2022-08-22T22:17:46.418Z,18.99
2022-08-22T22:20:17.283Z,18.95
2022-08-22T22:22:46.472Z,18.88
2022-08-22T22:25:40.232Z,18.85
2022-08-22T22:28:06.591Z,18.79
2022-08-22T22:30:34.823Z,18.77
2022-08-22T22:33:04.287Z,18.72
2022-08-22T22:35:32.785Z,18.67
2022-08-22T22:38:01.043Z,18.63
2022-08-22T22:40:29.199Z,18.59
2022-08-22T22:42:57.177Z,18.55
2022-08-22T22:45:25.370Z,18.52
2022-08-22T22:47:53.378Z,18.48
2022-08-22T22:50:23.010Z,18.46
2022-08-22T22:52:51.016Z,18.43
2022-08-22T22:55:24.259Z,18.39
2022-08-22T22:57:58.457Z,18.38
2022-08-22T23:00:31.180Z,18.36
2022-08-22T23:03:00.555Z,18.34
2022-08-22T23:05:30.394Z,18.31
2022-08-22T23:07:59.277Z,18.28
2022-08-22T23:10:28.702Z,18.27
2022-08-22T23:12:56.827Z,18.24
2022-08-22T23:15:24.761Z,18.20
2022-08-22T23:17:52.721Z,18.17
2022-08-22T23:20:20.842Z,18.13
2022-08-22T23:22:50.529Z,18.11
2022-08-22T23:25:18.616Z,18.07
2022-08-22T23:27:48.695Z,18.05
2022-08-22T23:30:20.801Z,18.04
2022-08-22T23:32:49.062Z,18.03
2022-08-22T23:35:16.990Z,18.00
2022-08-22T23:37:44.915Z,17.98
2022-08-22T23:40:14.482Z,17.96
2022-08-22T23:42:42.994Z,17.92
2022-08-22T23:45:11.137Z,17.92
2022-08-22T23:47:39.063Z,17.90
2022-08-22T23:50:07.373Z,17.88
2022-08-22T23:52:35.365Z,17.84
2022-08-22T23:55:03.297Z,17.82
2022-08-22T23:57:32.705Z,17.79
